x

Fairweather Ground 105nm West Of Juno, Ak (46083) Wave Buoy

3:50am - Fri 26th Aug 2016 All times are AKDT. -8 hours from GMT.

  • Sig Wave height 6.2ft
  • Swell Direction
  • Peak Period 7s
  • Average Period 6s
  • Wind
    18mph, 25mph gusts
  • Sea Temp 58°f
  • Air Temp 58°f
  • Sea Pressure 1015.8mb
  • Fairweather Ground 105nm West  Of Juno, Ak
  • Fairweather Ground 105nm West  Of Juno, Ak

More Historic Weather Station data

Upgrade to MSW Pro to gain access to the past 30 days of data for over 8000 Wavebouys and Weather Stations around the globe.

Join Pro

Comparision Forecast

View Surf forecast
   
Fri 08/26 3:50am 6ft 7s 6s 18 25 mph 1015.8mb 58f 58f
2:50am 6ft 8s 6s 20 22 mph 1016.4mb 58f 58f
1:50am 5.5ft 8s 6s 20 22 mph 1016.9mb 58f 59f
12:50am 5ft 6s 6s 18 22 mph 1018mb 58f 59f
Thu 08/25 11:50pm 4.5ft 8s 6s 13 18 mph 1019.3mb 59f 59f
10:50pm 4.5ft 8s 6s 13 16 mph 1020.8mb 58f 59f
9:50pm 4.5ft 8s 6s 7 9 mph 1022mb 58f 59f
8:50pm 4.5ft 8s 6s 7 9 mph 1023.3mb 58f 59f
7:50pm 4.5ft 8s 6s 7 9 mph 1024.2mb 58f 59f
6:50pm 4.5ft 8s 6s 7 9 mph 1025.1mb 58f 59f
5:50pm 4.5ft 7s 6s 9
mph
1025.8mb 58f 59f
4:50pm 4.5ft 8s 6s 9 11 mph 1027mb 58f 59f
3:50pm 4.5ft 8s 6s 11 13 mph 1027.9mb 58f 59f
2:50pm 4.5ft 8s 6s 11 16 mph 1028.8mb 58f 59f
1:50pm 4.5ft 8s 6s 11 13 mph 1029.2mb 59f 59f
12:50pm 4.5ft 8s 6s 9 11 mph 1029.9mb 58f 59f
11:50am 4.5ft 8s 6s 11
mph
1030.2mb 58f 59f
10:50am 4.5ft 8s 6s 11 13 mph 1030.8mb 58f 59f
9:50am 4.5ft 8s 7s 9
mph
1031.2mb 58f 58f
8:50am 4.5ft 8s 6s 7
mph
1031.7mb 58f 58f
7:50am 4.5ft 8s 6s 4 7 mph 1031.9mb 58f 59f
6:50am 4.5ft 8s 6s 7
mph
1032.4mb 58f 59f
5:50am 4.5ft 8s 6s 7
mph
1032.7mb 58f 59f
4:50am 4ft 8s 6s 7 9 mph 1032.8mb 58f 59f
3:50am 4.5ft 8s 6s 7 9 mph 1033mb 58f 59f
2:50am 4.5ft 8s 6s 7 9 mph 1033.2mb 58f 59f
1:50am 5ft 8s 6s 4 7 mph 1033.5mb 58f 59f
12:50am 5ft 8s 6s 4 7 mph 1033.7mb 58f 59f
Wed 08/24 11:50pm 5ft 7s 6s 7
mph
1034.1mb 58f 59f
10:50pm 5ft 7s 6s 9
mph
1034.3mb 58f 58f
9:50pm 5ft 8s 7s 11
mph
1034.4mb 58f 58f
8:50pm 5ft 8s 7s 11 16 mph 1034.3mb 58f 58f
6:50pm 4.5ft 8s 7s 9 11 mph 1034.7mb 58f 58f
5:50pm 4.5ft 8s 6s 9
mph
1034.7mb 58f 58f
4:50pm 4.5ft 8s 6s 7 11 mph 1035.2mb 58f 59f
3:50pm 4.5ft 15s 6s 7 9 mph 1035.5mb 59f 59f
2:50pm 5ft 8s 6s 7 9 mph 1035.5mb 58f 59f
1:50pm 5ft 8s 6s 2 4 mph 1035.6mb 59f 59f
12:50pm 5.5ft 8s 6s 2 4 mph 1035.5mb 58f 59f
11:50am 6ft 8s 6s 2 4 mph 1035.4mb 58f 59f
10:50am 6ft 9s 6s  -  2 mph 1034.9mb 58f 59f
9:50am 6ft 9s 6s 4 7 mph 1034.3mb 58f 59f
8:50am 6ft 9s  -  7 9 mph 1033.8mb 58f 59f
7:50am 5.5ft 9s 7s 7 9 mph 1033.5mb 58f 58f
6:50am 5ft 9s 7s 9 11 mph 1033mb 58f 58f
5:50am 5.5ft 9s 7s 7 9 mph 1032.6mb 58f 58f
4:50am 5ft 8s 7s 9 13 mph 1032.4mb 58f 58f
3:50am 5ft 9s 7s 9
mph
1032mb 58f 59f
1:50am 5.5ft 10s 7s 9 11 mph 1031.2mb 58f 59f
12:50am 5.5ft 10s 7s 7 9 mph 1030.8mb 58f 59f
Tue 08/23 11:50pm 6.5ft 9s 7s 7
mph
1030.3mb 58f 59f
10:50pm 7ft 9s 7s 9 11 mph 1029.8mb 58f 59f
9:50pm 6.5ft 9s 7s 7 9 mph 1029.2mb 58f 59f
8:50pm 6ft 9s 6s 13 18 mph 1028.5mb 58f 59f
7:50pm 5.5ft 9s 6s 18 22 mph 1027.9mb 58f 58f
6:50pm 5.5ft 10s 6s 18 22 mph 1027.7mb 58f 57f
5:50pm 5ft 8s 6s 18 22 mph 1027.7mb 58f 57f
4:50pm 6ft 10s 7s 13 16 mph 1028.1mb 58f 57f
3:50pm 6ft 10s 7s 13 18 mph 1027.8mb 58f 58f
2:50pm 5ft 9s 7s 13 16 mph 1027.4mb 58f 58f
1:50pm 6ft 11s 7s 9
mph
1027.1mb 58f 59f
12:50pm 6ft 10s 7s 7 9 mph 1026.7mb 58f 59f
11:50am 6.5ft 11s 7s 7 11 mph 1025.9mb 58f 59f
10:50am 7ft 9s 7s 9 11 mph 1024.9mb 58f 59f
9:50am 6ft 11s 7s 9 13 mph 1024mb 58f 59f
8:50am 6ft 7s 6s 4 7 mph 1022.9mb 58f 58f
7:50am 6.5ft 9s 7s 9 11 mph 1021.8mb 58f 58f
6:50am 6.5ft 7s 6s 4 7 mph 1021mb 59f 58f
5:50am 6.5ft 7s 6s 7
mph
1020.3mb 59f 58f
4:50am 6ft 7s 6s 9 11 mph 1019.8mb 59f 58f
3:50am 6ft 7s 6s 9 11 mph 1019.6mb 59f 58f
2:50am 6ft 7s 6s 11 16 mph 1019.4mb 59f 59f
1:50am 6ft 8s 6s 13 16 mph 1019.1mb 59f 58f
12:50am 6ft 8s 6s 13 16 mph 1018.9mb 59f 59f
Mon 08/22 11:50pm 7.5ft 6s 6s 9 11 mph 1019mb 59f 58f
10:50pm 8.5ft 7s 6s 20 27 mph 1018.4mb 58f 57f
9:50pm 8.5ft 7s 6s 29 34 mph 1017.7mb 58f 57f
8:50pm 9ft 7s 6s 29 34 mph 1017.2mb 58f 57f
7:50pm 6.5ft 6s 5s 27 31 mph 1016.9mb 58f 56f
6:50pm 6.5ft 6s 5s 25 29 mph 1017mb 58f 56f
5:50pm 5.5ft 6s 5s 27 31 mph 1017.1mb 58f 56f
4:50pm 5ft 5s 5s 25 31 mph 1017mb 58f 56f
3:50pm 4.5ft 16s 4s 25 29 mph 1017.3mb 58f 55f
2:50pm 3.5ft 4s 4s 20 22 mph 1017.1mb 58f 57f
1:50pm 3.5ft 15s 4s 20 25 mph 1016.9mb 58f 58f